Time;durP1;ratioP1;P1;durP2;ratioP2;P2;SDS_P1;SDS_P2;PMS_P1;PMS_P2;Temp;Humidity;BMP_temperature;BMP_pressure;BME280_temperature;BME280_humidity;BME280_pressure;Samples;Min_cycle;Max_cycle;Signal;HPM_P1;HPM_P2
2022/10/25 00:01:45;;;;;;;;;0.00;0.00;;;;;15.54;77.29;100925.00;5011955;28;45450;-58
2022/10/25 00:04:11;;;;;;;;;1.00;1.00;;;;;15.54;76.78;100926.84;5008967;28;45265;-58
2022/10/25 00:06:36;;;;;;;;;3.00;1.00;;;;;15.46;77.13;100918.47;5018575;28;45609;-58
2022/10/25 00:09:02;;;;;;;;;2.00;2.00;;;;;15.52;77.33;100929.63;5018812;28;45418;-58
2022/10/25 00:11:30;;;;;;;;;1.67;1.67;;;;;15.49;77.26;100923.59;5017862;28;45403;-57
2022/10/25 00:13:58;;;;;;;;;2.67;1.00;;;;;15.49;77.77;100927.13;5018441;28;45561;-58
2022/10/25 00:16:29;;;;;;;;;1.00;1.00;;;;;15.46;77.68;100927.38;5018930;28;45713;-57
2022/10/25 00:18:55;;;;;;;;;2.00;1.00;;;;;15.46;78.21;100927.38;5018302;28;46148;-57
2022/10/25 00:21:21;;;;;;;;;1.00;1.00;;;;;15.43;77.48;100929.41;5018597;28;45367;-57
2022/10/25 00:23:47;;;;;;;;;0.33;0.33;;;;;15.44;77.07;100929.31;5016643;28;45270;-57
2022/10/25 00:26:13;;;;;;;;;1.00;1.00;;;;;15.44;77.87;100931.13;5028912;28;45234;-59
2022/10/25 00:28:39;;;;;;;;;1.67;1.67;;;;;15.42;78.20;100928.56;5022213;28;46452;-56
2022/10/25 00:31:07;;;;;;;;;3.00;0.00;;;;;15.36;77.81;100923.63;5018163;28;45355;-58
2022/10/25 00:33:34;;;;;;;;;2.00;1.00;;;;;15.32;78.87;100917.63;5018817;28;45281;-57
2022/10/25 00:36:05;;;;;;;;;2.00;0.00;;;;;15.38;78.35;100928.91;5018536;28;45482;-57
2022/10/25 00:38:30;;;;;;;;;1.00;1.00;;;;;15.37;78.42;100929.88;5018285;28;45343;-57
2022/10/25 00:40:55;;;;;;;;;1.00;1.00;;;;;15.35;77.67;100933.47;5018235;28;45411;-58
2022/10/25 00:43:51;;;;;;;;;1.00;0.67;;;;;15.34;77.64;100934.44;5015311;28;45405;-57
2022/10/25 00:46:16;;;;;;;;;1.00;1.00;;;;;15.38;77.78;100927.06;5017739;28;45377;-58
2022/10/25 00:48:47;;;;;;;;;2.00;2.00;;;;;15.35;77.97;100928.13;5017159;28;45424;-56
2022/10/25 00:51:13;;;;;;;;;2.33;0.33;;;;;15.35;78.24;100924.59;5018660;28;45229;-57
2022/10/25 00:53:38;;;;;;;;;0.00;0.00;;;;;15.34;77.92;100934.44;5017191;28;45250;-57
2022/10/25 00:56:18;;;;;;;;;0.00;0.00;;;;;15.28;77.93;100916.13;5019134;28;45344;-57
2022/10/25 00:58:48;;;;;;;;;3.00;1.00;;;;;15.34;78.26;100939.81;5018009;28;46551;-59
2022/10/25 01:01:14;;;;;;;;;2.00;1.00;;;;;15.30;78.08;100935.63;5017837;28;45276;-60
2022/10/25 01:03:42;;;;;;;;;1.00;1.00;;;;;15.33;78.57;100939.91;4999661;28;45494;-56
2022/10/25 01:06:16;;;;;;;;;1.00;1.00;;;;;15.34;78.10;100942.50;5018206;28;45443;-56
2022/10/25 01:08:42;;;;;;;;;1.00;1.00;;;;;15.30;78.65;100943.69;5017805;28;45686;-57
2022/10/25 01:11:08;;;;;;;;;2.00;2.00;;;;;15.32;79.13;100946.25;5017787;28;45383;-57
2022/10/25 01:13:35;;;;;;;;;3.00;1.00;;;;;15.31;78.85;100940.03;5017938;28;45472;-57
2022/10/25 01:16:37;;;;;;;;;1.00;1.00;;;;;15.27;78.92;100935.88;5019276;28;45582;-57
2022/10/25 01:19:34;;;;;;;;;2.00;2.00;;;;;15.26;78.72;100944.88;5018961;28;46423;-58
2022/10/25 01:22:07;;;;;;;;;1.33;1.33;;;;;15.26;79.04;100939.50;5017753;28;45320;-64
2022/10/25 01:24:48;;;;;;;;;1.33;1.33;;;;;15.25;78.82;100937.81;5017793;28;45414;-57
2022/10/25 01:27:22;;;;;;;;;1.00;1.00;;;;;15.24;79.07;100948.63;5029344;28;45375;-59
2022/10/25 01:30:15;;;;;;;;;2.33;1.00;;;;;15.22;79.41;100940.66;5016659;28;47286;-56
2022/10/25 01:33:19;;;;;;;;;1.00;1.00;;;;;15.23;79.09;100941.53;5017322;28;45319;-58
2022/10/25 01:35:52;;;;;;;;;1.00;1.00;;;;;15.23;78.99;100942.38;5016007;28;46037;-56
2022/10/25 01:38:24;;;;;;;;;2.00;2.00;;;;;15.22;79.07;100943.34;5020405;28;45841;-57
2022/10/25 01:41:01;;;;;;;;;3.00;1.00;;;;;15.20;79.24;100934.56;5017891;28;46435;-56
2022/10/25 01:43:37;;;;;;;;;1.67;1.00;;;;;15.17;79.47;100934.78;5017839;28;45379;-58
2022/10/25 01:46:28;;;;;;;;;4.00;1.00;;;;;15.16;79.34;100938.44;5017961;28;45383;-58
2022/10/25 01:49:07;;;;;;;;;1.67;0.33;;;;;15.14;79.07;100936.81;5018540;28;45565;-58
2022/10/25 01:51:37;;;;;;;;;2.00;2.00;;;;;15.13;79.28;100924.41;5017537;28;45576;-57
2022/10/25 01:54:14;;;;;;;;;4.00;1.00;;;;;15.15;79.51;100931.38;5016261;28;45352;-59
2022/10/25 01:56:53;;;;;;;;;3.00;1.00;;;;;15.13;79.48;100933.28;5017330;28;45225;-57
2022/10/25 01:59:37;;;;;;;;;1.00;1.00;;;;;15.12;79.22;100936.94;5016727;28;45465;-56
2022/10/25 02:02:18;;;;;;;;;2.00;2.00;;;;;15.12;79.16;100942.31;5008042;28;45621;-58
2022/10/25 02:04:53;;;;;;;;;2.67;1.67;;;;;15.11;78.44;100935.22;4997250;28;45273;-57
2022/10/25 02:07:40;;;;;;;;;1.67;1.00;;;;;15.10;78.48;100944.19;4997143;28;45407;-57
2022/10/25 02:10:22;;;;;;;;;1.00;1.00;;;;;15.12;78.54;100936.94;5009539;28;45527;-57
2022/10/25 02:12:54;;;;;;;;;0.00;0.00;;;;;15.05;78.31;100917.75;5016098;28;47276;-57
2022/10/25 02:15:28;;;;;;;;;2.00;1.00;;;;;15.04;77.89;100920.53;5016793;28;45395;-57
2022/10/25 02:17:59;;;;;;;;;3.67;1.00;;;;;15.12;77.96;100931.59;5016674;28;45269;-57
2022/10/25 02:20:29;;;;;;;;;2.33;1.00;;;;;15.13;77.99;100938.66;5016999;28;45309;-58
2022/10/25 02:22:58;;;;;;;;;0.00;0.00;;;;;15.10;77.52;100935.31;5016701;28;46929;-57
2022/10/25 02:25:24;;;;;;;;;0.00;0.00;;;;;15.15;77.20;100947.44;5015249;28;45245;-58
2022/10/25 02:27:53;;;;;;;;;1.00;0.00;;;;;15.14;76.98;100943.03;5016278;28;45420;-56
2022/10/25 02:30:19;;;;;;;;;0.00;0.00;;;;;15.16;77.35;100942.94;5016842;28;45359;-58
2022/10/25 02:32:44;;;;;;;;;1.00;1.00;;;;;15.10;77.21;100937.97;5016265;28;46124;-57
2022/10/25 02:35:15;;;;;;;;;1.00;1.00;;;;;15.18;77.26;100949.03;5016559;28;45344;-57
2022/10/25 02:37:40;;;;;;;;;1.67;1.67;;;;;15.15;77.43;100949.25;5016686;28;45387;-57
2022/10/25 02:40:07;;;;;;;;;0.67;0.67;;;;;15.16;77.87;100950.97;5017028;28;45461;-57
2022/10/25 02:42:32;;;;;;;;;1.00;1.00;;;;;15.18;77.55;100952.56;5016458;28;46498;-56
2022/10/25 02:44:58;;;;;;;;;2.67;1.00;;;;;15.16;77.21;100945.63;5015889;28;45375;-57
2022/10/25 02:47:23;;;;;;;;;1.00;1.00;;;;;15.12;77.77;100930.72;5016574;28;45434;-62
2022/10/25 02:49:49;;;;;;;;;2.00;0.33;;;;;15.11;77.63;100943.25;5016577;28;45269;-58
2022/10/25 02:52:14;;;;;;;;;3.00;0.00;;;;;15.17;77.18;100945.50;5016347;28;45470;-58
2022/10/25 02:54:40;;;;;;;;;4.00;0.33;;;;;15.17;77.46;100947.31;5017092;28;45444;-57
2022/10/25 02:57:05;;;;;;;;;2.00;1.00;;;;;15.19;77.93;100953.44;5017037;28;45327;-58
2022/10/25 02:59:30;;;;;;;;;0.33;0.33;;;;;15.22;77.62;100948.69;5017066;28;45402;-57
2022/10/25 03:01:59;;;;;;;;;2.33;1.33;;;;;15.27;77.44;100949.25;5015624;28;46000;-57
2022/10/25 03:04:24;;;;;;;;;1.67;1.67;;;;;15.30;77.45;100942.81;5015660;28;45248;-57
2022/10/25 03:06:50;;;;;;;;;4.33;1.00;;;;;15.38;77.11;100953.03;5014881;28;45393;-57
2022/10/25 03:09:15;;;;;;;;;1.00;1.00;;;;;15.40;76.56;100948.41;5016962;28;45168;-57
2022/10/25 03:11:41;;;;;;;;;1.33;0.00;;;;;15.45;76.05;100948.91;5015894;28;48232;-57
2022/10/25 03:14:06;;;;;;;;;2.67;1.00;;;;;15.45;75.67;100943.56;5016057;28;45492;-57
2022/10/25 03:16:32;;;;;;;;;2.00;0.00;;;;;15.52;75.20;100955.56;5016253;28;45414;-59
2022/10/25 03:18:58;;;;;;;;;0.00;0.00;;;;;15.54;75.17;100942.91;5016306;28;45395;-59
2022/10/25 03:21:24;;;;;;;;;2.00;2.00;;;;;15.58;74.70;100945.25;5016372;28;45469;-56
2022/10/25 03:23:50;;;;;;;;;2.67;0.00;;;;;15.60;74.72;100942.50;5015956;28;45344;-62
2022/10/25 03:26:15;;;;;;;;;0.33;0.33;;;;;15.65;74.52;100947.56;5016001;28;45567;-60
2022/10/25 03:28:40;;;;;;;;;3.00;3.00;;;;;15.60;74.43;100943.34;5015027;28;45597;-57
2022/10/25 03:31:16;;;;;;;;;3.00;2.00;;;;;15.72;74.52;100952.34;5015692;28;46089;-58
2022/10/25 03:33:42;;;;;;;;;0.33;0.33;;;;;15.72;74.48;100957.72;4996773;28;45332;-57
2022/10/25 03:36:08;;;;;;;;;2.33;1.00;;;;;15.73;74.56;100955.88;5015680;28;45252;-58
2022/10/25 03:38:34;;;;;;;;;3.33;1.00;;;;;15.74;74.90;100961.13;5015755;28;45569;-57
2022/10/25 03:40:59;;;;;;;;;3.00;0.00;;;;;15.67;75.06;100949.16;5015701;28;46330;-57
2022/10/25 03:43:25;;;;;;;;;1.00;1.00;;;;;15.74;75.04;100973.69;4998030;28;45306;-57
2022/10/25 03:45:50;;;;;;;;;2.33;1.33;;;;;15.74;75.13;100977.22;5015451;28;45337;-57
2022/10/25 03:48:15;;;;;;;;;2.67;2.67;;;;;15.78;75.12;100978.75;5015799;28;45311;-58
2022/10/25 03:50:41;;;;;;;;;0.67;0.00;;;;;15.80;75.00;100975.94;5015541;28;45361;-57
2022/10/25 03:53:07;;;;;;;;;3.00;1.00;;;;;15.82;75.04;100980.22;5015165;28;45249;-57
2022/10/25 03:55:33;;;;;;;;;3.67;1.00;;;;;15.83;74.66;100981.94;5013691;28;45482;-56
2022/10/25 03:57:58;;;;;;;;;2.00;1.00;;;;;15.86;75.34;100983.53;5014007;28;45454;-58
2022/10/25 04:00:23;;;;;;;;;0.67;0.67;;;;;15.82;75.09;100974.88;5015172;28;45331;-58
2022/10/25 04:02:57;;;;;;;;;0.00;0.00;;;;;15.89;74.87;100984.19;5000140;28;45548;-58
2022/10/25 04:05:22;;;;;;;;;3.00;1.67;;;;;15.92;74.66;100980.44;4995723;28;45474;-58
2022/10/25 04:07:48;;;;;;;;;1.00;1.00;;;;;15.91;74.59;100984.09;4997310;28;45393;-57
2022/10/25 04:10:14;;;;;;;;;2.00;2.00;;;;;15.93;74.64;100980.31;5014103;28;48198;-57
2022/10/25 04:12:39;;;;;;;;;3.00;2.00;;;;;15.88;74.42;100970.88;5015497;28;45297;-58
2022/10/25 04:15:05;;;;;;;;;1.00;1.00;;;;;15.93;74.78;100977.63;5015136;28;45335;-58
2022/10/25 04:17:31;;;;;;;;;1.00;1.00;;;;;15.92;74.14;100981.28;5016771;28;45406;-58
2022/10/25 04:19:56;;;;;;;;;3.67;0.00;;;;;15.91;74.27;100979.56;5018365;28;46261;-57
2022/10/25 04:22:21;;;;;;;;;3.00;1.00;;;;;15.86;74.26;100984.38;5018845;28;45372;-58
2022/10/25 04:24:47;;;;;;;;;1.00;1.00;;;;;15.87;74.36;100970.00;5018765;28;45504;-57
2022/10/25 04:27:12;;;;;;;;;2.00;1.00;;;;;15.90;74.30;100977.00;5018753;28;45269;-57
2022/10/25 04:29:38;;;;;;;;;1.00;1.00;;;;;15.95;74.23;100984.72;5019244;28;45488;-58
2022/10/25 04:32:04;;;;;;;;;1.67;1.67;;;;;15.86;74.15;100965.63;5018256;28;45254;-59
2022/10/25 04:34:30;;;;;;;;;4.33;1.67;;;;;15.94;73.93;100981.16;5018390;28;45320;-58
2022/10/25 04:36:55;;;;;;;;;3.00;1.00;;;;;15.95;74.20;100984.72;5034246;28;45233;-57
2022/10/25 04:39:20;;;;;;;;;1.00;1.00;;;;;15.87;74.26;100982.56;5019119;28;46397;-58
2022/10/25 04:41:45;;;;;;;;;3.00;3.00;;;;;15.89;74.10;100986.88;5018782;28;45163;-58
2022/10/25 04:44:11;;;;;;;;;1.00;1.00;;;;;15.89;74.43;100989.56;5017961;28;45181;-57
2022/10/25 04:46:36;;;;;;;;;2.33;1.00;;;;;15.83;74.79;100981.94;5018349;28;45275;-57
2022/10/25 04:49:02;;;;;;;;;3.00;2.00;;;;;15.81;74.91;100981.19;5018150;28;45618;-58
2022/10/25 04:51:27;;;;;;;;;2.67;2.00;;;;;15.78;75.18;100981.44;5018117;28;45307;-58
2022/10/25 04:53:54;;;;;;;;;2.33;2.33;;;;;15.75;75.60;100988.81;5018255;28;45424;-59
2022/10/25 04:56:19;;;;;;;;;1.67;1.67;;;;;15.75;76.04;100989.66;5018518;28;45549;-56
2022/10/25 04:58:44;;;;;;;;;4.33;1.00;;;;;15.73;76.45;100988.06;5017842;28;46113;-57
2022/10/25 05:01:14;;;;;;;;;3.67;2.00;;;;;15.74;76.32;100995.13;5016353;28;45343;-58
2022/10/25 05:03:40;;;;;;;;;3.33;2.00;;;;;15.72;76.86;101005.97;5018130;28;45407;-56
2022/10/25 05:06:14;;;;;;;;;1.00;1.00;;;;;15.71;77.06;100998.91;5018132;28;45309;-57
2022/10/25 05:08:43;;;;;;;;;3.00;3.00;;;;;15.69;76.87;100997.31;5017503;28;46098;-57
2022/10/25 05:11:10;;;;;;;;;2.00;2.00;;;;;15.71;77.20;100996.22;5017393;28;45341;-56
2022/10/25 05:13:37;;;;;;;;;3.00;1.00;;;;;15.70;77.08;100996.34;5017689;28;45275;-57
2022/10/25 05:16:03;;;;;;;;;4.67;3.33;;;;;15.67;77.30;100999.25;5017725;28;45268;-58
2022/10/25 05:18:30;;;;;;;;;3.00;3.00;;;;;15.64;77.50;100989.59;5016877;28;45465;-57
2022/10/25 05:21:03;;;;;;;;;2.00;2.00;;;;;15.70;77.13;101002.56;5017190;28;45387;-58
2022/10/25 05:23:28;;;;;;;;;5.33;3.67;;;;;15.70;77.29;101001.69;5017611;28;45339;-58
2022/10/25 05:26:04;;;;;;;;;4.33;3.00;;;;;15.70;77.10;101010.59;5017383;28;45356;-57
2022/10/25 05:28:29;;;;;;;;;3.67;3.00;;;;;15.71;77.06;101004.25;5016612;28;46130;-58
2022/10/25 05:30:55;;;;;;;;;5.00;2.33;;;;;15.70;76.99;100997.19;5017199;28;45260;-58
2022/10/25 05:33:20;;;;;;;;;4.00;2.00;;;;;15.72;76.64;101000.63;5018028;28;45430;-59
2022/10/25 05:35:45;;;;;;;;;3.00;3.00;;;;;15.70;77.07;100994.50;5017291;28;45609;-58
2022/10/25 05:38:11;;;;;;;;;4.67;2.00;;;;;15.68;77.01;101001.81;5017355;28;45376;-58
2022/10/25 05:40:36;;;;;;;;;4.67;3.00;;;;;15.63;77.36;100990.56;5032839;28;45363;-58
2022/10/25 05:43:01;;;;;;;;;5.00;4.00;;;;;15.71;77.49;101009.63;5017606;28;45407;-57
2022/10/25 05:45:27;;;;;;;;;4.67;3.00;;;;;15.73;77.26;101010.38;5017640;28;45258;-58
2022/10/25 05:47:53;;;;;;;;;4.00;3.67;;;;;15.68;77.03;100999.13;5032493;28;47102;-58
2022/10/25 05:50:18;;;;;;;;;4.00;4.00;;;;;15.68;77.29;101009.84;5015896;28;45265;-59
2022/10/25 05:52:43;;;;;;;;;3.00;1.67;;;;;15.69;77.53;101010.72;5016983;28;45304;-58
2022/10/25 05:55:09;;;;;;;;;4.00;3.33;;;;;15.69;77.36;101000.84;5017211;28;45602;-57
2022/10/25 05:57:35;;;;;;;;;5.00;5.00;;;;;15.64;77.52;100994.97;5016869;28;45272;-59
2022/10/25 06:00:00;;;;;;;;;5.67;2.33;;;;;15.72;77.24;101005.13;5015780;28;45352;-59
2022/10/25 06:02:25;;;;;;;;;2.67;2.67;;;;;15.74;77.26;101013.91;5016108;28;45442;-58
2022/10/25 06:04:51;;;;;;;;;3.00;3.00;;;;;15.72;77.56;101005.97;5017488;28;45498;-57
2022/10/25 06:07:16;;;;;;;;;3.67;2.33;;;;;15.69;78.17;101006.19;5016462;28;47293;-57
2022/10/25 06:09:41;;;;;;;;;3.00;2.00;;;;;15.70;77.81;101012.41;5016321;28;45332;-57
2022/10/25 06:12:07;;;;;;;;;9.00;4.00;;;;;15.68;78.05;101011.69;5015617;28;45442;-58
2022/10/25 06:14:32;;;;;;;;;3.33;3.33;;;;;15.58;78.45;101003.38;5017065;28;45759;-59
2022/10/25 06:16:58;;;;;;;;;3.67;3.00;;;;;15.57;78.12;101002.53;5017329;28;45194;-59
2022/10/25 06:19:23;;;;;;;;;6.00;3.00;;;;;15.60;78.53;101007.69;5016674;28;45354;-58
2022/10/25 06:21:49;;;;;;;;;4.67;3.00;;;;;15.63;78.20;101012.88;5017047;28;45387;-57
2022/10/25 06:24:14;;;;;;;;;8.33;3.33;;;;;15.63;78.59;101015.56;5015260;28;45383;-58
2022/10/25 06:26:40;;;;;;;;;4.00;4.00;;;;;15.63;78.63;101012.00;5015972;28;46115;-58
2022/10/25 06:29:05;;;;;;;;;5.67;2.00;;;;;15.63;78.10;101020.06;5016477;28;45302;-57
2022/10/25 06:31:31;;;;;;;;;7.00;4.33;;;;;15.66;78.27;101022.50;5016591;28;45198;-58
2022/10/25 06:34:01;;;;;;;;;4.67;3.00;;;;;15.69;77.82;101021.44;5015635;28;45486;-59
2022/10/25 06:36:27;;;;;;;;;6.00;4.33;;;;;15.66;78.05;101021.66;5015921;28;47705;-56
2022/10/25 06:38:53;;;;;;;;;4.67;3.33;;;;;15.70;78.06;101031.19;5016450;28;45349;-58
2022/10/25 06:41:24;;;;;;;;;2.67;2.67;;;;;15.68;77.87;101033.97;5015389;28;45304;-57
2022/10/25 06:43:50;;;;;;;;;4.67;4.67;;;;;15.66;77.92;101027.88;5015417;28;45457;-57
2022/10/25 06:46:23;;;;;;;;;5.67;5.67;;;;;15.69;78.08;101024.97;5016107;28;45030;-58
2022/10/25 06:48:50;;;;;;;;;3.67;3.67;;;;;15.68;77.44;101038.50;5016039;28;45327;-59
2022/10/25 06:51:20;;;;;;;;;4.00;2.33;;;;;15.57;77.67;101004.34;5012402;28;45361;-59
2022/10/25 06:53:46;;;;;;;;;4.00;4.00;;;;;15.72;77.46;101039.97;5002129;28;45642;-59
2022/10/25 06:56:12;;;;;;;;;4.33;3.00;;;;;15.74;76.99;101036.22;4996009;28;46072;-62
2022/10/25 06:58:38;;;;;;;;;2.67;2.67;;;;;15.78;77.26;101040.41;5003103;28;45422;-57
2022/10/25 07:01:07;;;;;;;;;3.33;3.33;;;;;15.81;77.13;101042.03;5015881;28;45439;-65
2022/10/25 07:03:34;;;;;;;;;4.33;3.00;;;;;15.81;76.36;101048.25;5017019;28;45414;-60
2022/10/25 07:06:11;;;;;;;;;3.00;3.00;;;;;15.80;76.72;101041.16;5014574;28;46137;-58
2022/10/25 07:08:39;;;;;;;;;2.67;2.67;;;;;15.81;76.74;101048.25;5015483;28;45468;-59
2022/10/25 07:11:05;;;;;;;;;5.00;3.67;;;;;15.86;76.76;101045.22;4996277;28;45284;-62
2022/10/25 07:13:32;;;;;;;;;6.33;3.00;;;;;15.82;76.63;101039.22;5014917;28;45466;-60
2022/10/25 07:16:05;;;;;;;;;2.00;2.00;;;;;15.83;76.28;101040.94;5014660;28;46168;-63
2022/10/25 07:18:31;;;;;;;;;3.67;2.00;;;;;15.90;76.26;101046.75;5014879;28;45607;-65
2022/10/25 07:21:09;;;;;;;;;2.67;2.67;;;;;15.90;75.82;101044.91;5015153;28;45387;-66
2022/10/25 07:23:40;;;;;;;;;3.33;1.67;;;;;15.92;75.95;101050.16;5016456;28;45395;-61
2022/10/25 07:26:06;;;;;;;;;3.33;2.00;;;;;15.97;75.99;101052.50;5015496;28;45485;-61
2022/10/25 07:28:32;;;;;;;;;4.00;4.00;;;;;16.03;76.19;101058.31;5015636;28;45388;-56
2022/10/25 07:30:57;;;;;;;;;3.00;1.00;;;;;16.06;75.74;101058.09;5012902;28;45557;-57
2022/10/25 07:33:23;;;;;;;;;4.00;2.33;;;;;16.09;75.34;101055.19;4998301;28;45239;-58
2022/10/25 07:35:49;;;;;;;;;5.00;2.00;;;;;16.15;75.22;101059.28;5018407;28;45391;-58
2022/10/25 07:38:15;;;;;;;;;2.00;2.00;;;;;16.14;75.29;101065.56;5014807;28;45351;-59
2022/10/25 07:40:41;;;;;;;;;4.00;3.00;;;;;16.10;75.37;101066.78;5018141;28;45416;-60
2022/10/25 07:43:07;;;;;;;;;4.33;2.00;;;;;16.08;75.53;101066.88;5006516;28;45474;-59
2022/10/25 07:45:32;;;;;;;;;2.00;2.00;;;;;16.13;75.60;101069.22;5011076;28;45515;-59
2022/10/25 07:47:58;;;;;;;;;5.00;3.67;;;;;16.13;75.29;101074.59;5010513;28;45462;-58
2022/10/25 07:50:23;;;;;;;;;3.33;3.33;;;;;16.13;75.44;101075.44;5011161;28;45854;-59
2022/10/25 07:52:49;;;;;;;;;2.00;2.00;;;;;16.19;75.31;101072.34;5016063;28;45375;-58
2022/10/25 07:55:14;;;;;;;;;3.00;3.00;;;;;16.19;74.97;101063.44;5015556;28;46205;-58
2022/10/25 07:57:40;;;;;;;;;6.33;5.00;;;;;16.22;75.22;101060.53;5015808;28;45351;-61
2022/10/25 08:00:07;;;;;;;;;5.00;3.33;;;;;16.37;74.96;101080.03;5011418;28;45893;-60
2022/10/25 08:02:33;;;;;;;;;3.00;0.00;;;;;16.40;74.66;101077.97;5017823;28;45366;-59
2022/10/25 08:04:59;;;;;;;;;5.00;3.00;;;;;16.45;74.42;101075.81;5020348;28;45731;-59
2022/10/25 08:07:24;;;;;;;;;4.67;4.00;;;;;16.43;74.24;101076.91;5017778;28;45463;-61
2022/10/25 08:09:50;;;;;;;;;6.00;3.00;;;;;16.46;74.28;101074.00;5016127;28;45503;-60
2022/10/25 08:12:15;;;;;;;;;2.67;2.67;;;;;16.46;73.96;101072.16;5018583;28;45545;-60
2022/10/25 08:14:41;;;;;;;;;3.00;3.00;;;;;16.53;73.57;101073.41;5018019;28;45414;-59
2022/10/25 08:17:06;;;;;;;;;2.67;2.67;;;;;16.54;73.14;101068.94;5016314;28;45310;-59
2022/10/25 08:19:31;;;;;;;;;3.00;1.67;;;;;16.53;73.13;101073.41;5018244;28;45878;-58
2022/10/25 08:21:57;;;;;;;;;3.67;3.67;;;;;16.55;73.04;101065.28;5018519;28;45359;-58
2022/10/25 08:24:23;;;;;;;;;4.00;4.00;;;;;16.59;72.73;101061.38;5022321;28;45652;-59
2022/10/25 08:26:48;;;;;;;;;2.00;2.00;;;;;16.63;72.36;101054.81;5020001;28;45331;-58
2022/10/25 08:29:13;;;;;;;;;2.00;2.00;;;;;16.68;72.20;101059.91;5017866;28;45405;-57
2022/10/25 08:31:39;;;;;;;;;4.33;3.33;;;;;16.70;72.08;101047.19;5018225;28;45245;-59
2022/10/25 08:34:04;;;;;;;;;3.67;2.67;;;;;16.77;71.78;101054.66;5016968;28;45495;-58
2022/10/25 08:36:30;;;;;;;;;3.00;2.00;;;;;16.77;71.33;101051.13;5017142;28;45510;-58
2022/10/25 08:38:55;;;;;;;;;3.33;2.00;;;;;16.77;71.33;101054.66;5015986;28;45789;-59
2022/10/25 08:41:27;;;;;;;;;3.00;3.00;;;;;16.81;70.83;101052.63;5033915;28;45462;-59
2022/10/25 08:44:10;;;;;;;;;1.67;1.67;;;;;16.88;70.19;101051.19;5005343;28;47879;-60
2022/10/25 08:46:47;;;;;;;;;5.67;2.00;;;;;16.90;69.77;101054.63;5018170;28;45233;-58
2022/10/25 08:49:28;;;;;;;;;4.00;2.67;;;;;16.92;69.18;101047.28;5017358;28;45533;-59
2022/10/25 08:51:56;;;;;;;;;2.00;2.00;;;;;17.02;69.29;101053.69;4998418;28;45499;-62
2022/10/25 08:54:24;;;;;;;;;2.00;2.00;;;;;17.05;68.92;101053.44;5008263;28;45367;-59
2022/10/25 08:57:06;;;;;;;;;3.33;1.00;;;;;17.15;68.82;101058.13;5013762;28;45365;-66
2022/10/25 08:59:37;;;;;;;;;2.33;2.33;;;;;17.16;68.08;101052.63;5018287;28;45241;-59
2022/10/25 09:02:15;;;;;;;;;3.33;2.00;;;;;17.19;67.71;101059.59;5014921;28;45427;-58
2022/10/25 09:04:40;;;;;;;;;2.00;2.00;;;;;17.18;67.85;101036.38;5013691;28;45439;-60
2022/10/25 09:07:52;;;;;;;;;6.33;2.00;;;;;17.25;67.64;101048.41;5012091;28;45399;-59
2022/10/25 09:10:35;;;;;;;;;0.00;0.00;;;;;17.25;67.03;101048.41;5018640;28;45467;-60
2022/10/25 09:13:07;;;;;;;;;4.00;4.00;;;;;17.33;66.69;101056.75;5017639;28;45547;-58
2022/10/25 09:15:44;;;;;;;;;0.00;0.00;;;;;17.24;66.35;101035.94;5017850;28;46327;-58
2022/10/25 09:18:15;;;;;;;;;4.00;1.00;;;;;17.31;65.99;101054.16;4997105;28;45815;-59
2022/10/25 09:20:49;;;;;;;;;2.00;1.00;;;;;17.32;66.35;101049.66;5029392;28;45483;-60
2022/10/25 09:23:27;;;;;;;;;5.00;1.00;;;;;17.38;66.28;101049.16;5024401;28;45527;-59
2022/10/25 09:26:19;;;;;;;;;0.67;0.67;;;;;17.39;65.51;101040.97;5015217;28;45549;-59
2022/10/25 09:29:03;;;;;;;;;2.67;1.00;;;;;17.34;65.59;101031.56;5015017;28;45315;-58
2022/10/25 09:31:32;;;;;;;;;3.67;1.00;;;;;17.43;65.87;101038.91;5013759;28;45495;-59
2022/10/25 09:34:04;;;;;;;;;6.00;2.00;;;;;17.46;65.28;101044.06;5015300;28;45470;-60
2022/10/25 09:36:37;;;;;;;;;1.00;1.00;;;;;17.47;65.36;101036.84;5017360;28;45367;-57
2022/10/25 09:39:18;;;;;;;;;1.00;1.00;;;;;17.38;64.73;101028.50;5032559;28;46052;-59
2022/10/25 09:41:48;;;;;;;;;2.67;0.67;;;;;17.39;65.04;101035.59;5006694;28;45424;-58
2022/10/25 09:44:42;;;;;;;;;0.33;0.33;;;;;17.46;65.03;101041.38;5021759;28;45622;-59
2022/10/25 09:47:16;;;;;;;;;1.00;0.00;;;;;17.48;64.89;101044.81;5015069;28;45347;-58
2022/10/25 09:49:59;;;;;;;;;1.00;1.00;;;;;17.52;64.67;101023.91;5016231;28;45431;-57
2022/10/25 09:52:51;;;;;;;;;2.67;2.67;;;;;17.58;64.37;101029.66;4997862;28;45376;-58
2022/10/25 09:55:32;;;;;;;;;1.00;1.00;;;;;17.62;63.85;101036.50;4997864;28;45277;-60
2022/10/25 09:57:58;;;;;;;;;3.00;1.33;;;;;17.66;63.99;101037.13;5001872;28;45273;-60
2022/10/25 10:00:23;;;;;;;;;7.00;1.00;;;;;17.71;63.52;101031.41;5004952;28;45251;-60
2022/10/25 10:02:49;;;;;;;;;0.33;0.33;;;;;17.76;64.02;101042.66;5019908;28;45587;-57
2022/10/25 10:05:17;;;;;;;;;0.00;0.00;;;;;17.72;63.22;101025.06;5015707;28;45512;-60
2022/10/25 10:07:44;;;;;;;;;1.00;1.00;;;;;17.78;63.15;101040.72;5014663;28;46162;-58
2022/10/25 10:10:15;;;;;;;;;1.67;1.00;;;;;17.84;63.83;101034.81;5016692;28;45366;-57
2022/10/25 10:12:49;;;;;;;;;2.00;1.00;;;;;17.87;63.18;101027.38;5015856;28;45245;-59
2022/10/25 10:15:20;;;;;;;;;2.33;1.00;;;;;18.00;63.39;101026.41;5007746;28;45503;-61
2022/10/25 10:17:46;;;;;;;;;0.00;0.00;;;;;18.02;63.13;101027.13;4996567;28;46293;-60
2022/10/25 10:20:13;;;;;;;;;2.67;2.67;;;;;18.08;62.40;101021.25;5015847;28;45501;-58
2022/10/25 10:22:58;;;;;;;;;3.00;3.00;;;;;18.16;62.53;101016.13;4996924;28;45373;-58
2022/10/25 10:25:26;;;;;;;;;1.00;1.00;;;;;18.18;62.41;101016.84;5011931;28;46817;-60
2022/10/25 10:27:55;;;;;;;;;3.00;1.33;;;;;18.25;62.93;101018.06;5014225;28;45406;-58
2022/10/25 10:30:36;;;;;;;;;1.00;1.00;;;;;18.32;62.10;101019.25;5012267;28;45612;-58
2022/10/25 10:33:02;;;;;;;;;1.00;1.00;;;;;18.33;61.78;101020.97;5012288;28;45505;-58
2022/10/25 10:35:35;;;;;;;;;3.00;1.33;;;;;18.45;62.00;101013.72;5035486;27;46151;-58
2022/10/25 10:38:19;;;;;;;;;4.33;3.00;;;;;18.59;61.53;101016.13;5006484;28;46751;-61
2022/10/25 10:40:44;;;;;;;;;4.00;1.33;;;;;18.70;60.74;101008.06;5026597;28;45581;-59
2022/10/25 10:43:25;;;;;;;;;4.67;3.00;;;;;18.75;61.10;101003.16;5009443;28;45658;-60
2022/10/25 10:45:50;;;;;;;;;1.00;1.00;;;;;18.97;60.70;101017.50;5041890;28;45339;-60
2022/10/25 10:48:23;;;;;;;;;1.00;1.00;;;;;19.05;60.23;101006.94;5014450;28;45471;-59
2022/10/25 10:50:50;;;;;;;;;2.67;1.00;;;;;19.16;60.18;101004.19;5014555;28;45501;-56
2022/10/25 10:53:30;;;;;;;;;1.00;1.00;;;;;19.25;59.37;100999.81;5015353;28;45331;-60
2022/10/25 10:56:06;;;;;;;;;1.00;1.00;;;;;19.29;59.50;100991.34;5015470;28;45395;-59
2022/10/25 10:58:36;;;;;;;;;4.00;2.00;;;;;19.37;60.44;100986.13;5013879;28;46144;-59
2022/10/25 11:01:06;;;;;;;;;3.50;2.50;;;;;19.52;59.51;100988.47;5017149;28;45432;-60
2022/10/25 11:03:40;;;;;;;;;3.00;3.00;;;;;19.67;59.42;100981.81;5017277;28;45535;-61
2022/10/25 11:06:25;;;;;;;;;5.00;5.00;;;;;19.80;58.74;100992.38;5010442;28;45730;-60
2022/10/25 11:09:16;;;;;;;;;5.50;2.00;;;;;19.90;58.07;100979.75;5016401;28;45571;-64
2022/10/25 11:11:43;;;;;;;;;5.00;5.00;;;;;19.99;58.42;100981.63;5031993;28;45450;-61
2022/10/25 11:14:14;;;;;;;;;3.33;2.67;;;;;20.07;58.91;100971.00;5015957;28;45198;-65
2022/10/25 11:17:01;;;;;;;;;3.00;3.00;;;;;20.18;58.46;100964.59;5016334;28;45499;-61
2022/10/25 11:19:37;;;;;;;;;4.00;2.00;;;;;20.03;58.77;100972.25;5017323;28;45439;-62
2022/10/25 11:22:08;;;;;;;;;3.00;3.00;;;;;20.17;58.20;100971.84;5016984;28;45363;-66
2022/10/25 11:25:01;;;;;;;;;3.00;3.00;;;;;20.29;58.91;100969.91;5016147;28;45438;-71
2022/10/25 11:27:51;;;;;;;;;3.75;2.00;;;;;20.36;58.58;100965.66;5016062;28;45187;-62
2022/10/25 11:30:27;;;;;;;;;4.00;3.00;;;;;20.39;57.63;100957.28;5020018;28;46649;-65
2022/10/25 11:33:25;;;;;;;;;2.75;2.25;;;;;20.41;57.84;100955.28;5018788;28;45470;-63
2022/10/25 11:36:04;;;;;;;;;3.50;2.50;;;;;20.54;57.72;100950.47;5019233;28;47053;-64
2022/10/25 11:39:22;;;;;;;;;3.50;3.50;;;;;20.55;57.85;100945.94;5019853;28;45402;-62